createdAt,value
2017-07-30T00:00:40.120Z,17.50
2017-07-30T00:03:09.751Z,17.50
2017-07-30T00:05:39.698Z,17.40
2017-07-30T00:08:08.193Z,17.30
2017-07-30T00:10:37.050Z,17.10
2017-07-30T00:13:05.549Z,17.00
2017-07-30T00:15:34.420Z,17.00
2017-07-30T00:18:02.896Z,17.00
2017-07-30T00:20:32.165Z,16.90
2017-07-30T00:23:01.036Z,16.90
2017-07-30T00:28:00.087Z,17.20
2017-07-30T00:30:29.437Z,17.30
2017-07-30T00:32:58.082Z,17.30
2017-07-30T00:35:26.948Z,17.40
2017-07-30T00:37:55.819Z,17.40
2017-07-30T00:40:25.041Z,17.30
2017-07-30T00:42:53.939Z,17.20
2017-07-30T00:45:22.783Z,17.00
2017-07-30T00:47:51.367Z,17.10
2017-07-30T00:50:19.850Z,17.00
2017-07-30T00:52:48.676Z,17.00
2017-07-30T00:55:17.970Z,16.90
2017-07-30T00:57:46.900Z,16.70
2017-07-30T01:00:15.438Z,16.70
2017-07-30T01:02:45.064Z,16.60
2017-07-30T01:05:15.012Z,16.40
2017-07-30T01:07:44.784Z,16.40
2017-07-30T01:10:14.778Z,16.40
2017-07-30T01:12:43.256Z,16.40
2017-07-30T01:15:12.940Z,16.50
2017-07-30T01:17:42.536Z,16.60
2017-07-30T01:20:11.683Z,16.50
2017-07-30T01:22:41.626Z,16.50
2017-07-30T01:25:10.453Z,16.40
2017-07-30T01:27:39.815Z,16.40
2017-07-30T01:30:08.287Z,16.40
2017-07-30T01:32:37.192Z,16.30
2017-07-30T01:35:06.028Z,16.30
2017-07-30T01:37:35.273Z,16.30
2017-07-30T01:40:04.504Z,16.20
2017-07-30T01:42:33.790Z,16.20
2017-07-30T01:45:03.134Z,16.20
2017-07-30T01:47:31.983Z,16.10
2017-07-30T01:50:00.430Z,16.10
2017-07-30T01:52:28.921Z,16.10
2017-07-30T01:54:59.128Z,16.10
2017-07-30T01:57:27.581Z,16.20
2017-07-30T01:59:56.432Z,16.20
2017-07-30T02:02:25.351Z,16.20
2017-07-30T02:04:53.849Z,16.20
2017-07-30T02:07:23.792Z,16.10
2017-07-30T02:09:52.694Z,16.00
2017-07-30T02:12:22.291Z,15.90
2017-07-30T02:14:51.498Z,15.90
2017-07-30T02:17:20.442Z,15.70
2017-07-30T02:19:50.334Z,16.10
2017-07-30T02:22:18.779Z,16.20
2017-07-30T02:24:48.072Z,16.30
2017-07-30T02:27:16.551Z,16.40
2017-07-30T02:29:45.769Z,16.40
2017-07-30T02:32:14.263Z,16.40
2017-07-30T02:34:43.097Z,16.20
2017-07-30T02:37:12.028Z,16.10
2017-07-30T02:39:42.039Z,16.00
2017-07-30T02:42:11.313Z,15.80
2017-07-30T02:44:39.773Z,15.80
2017-07-30T02:47:08.219Z,15.90
2017-07-30T02:49:36.771Z,16.00
2017-07-30T02:52:05.240Z,16.00
2017-07-30T02:54:34.357Z,15.90
2017-07-30T02:59:32.314Z,15.80
2017-07-30T03:02:01.980Z,15.70
2017-07-30T03:04:31.580Z,15.80
2017-07-30T03:07:01.136Z,16.00
2017-07-30T03:09:29.596Z,16.10
2017-07-30T03:11:58.054Z,16.10
2017-07-30T03:14:26.575Z,16.00
2017-07-30T03:16:55.208Z,15.90
2017-07-30T03:19:23.686Z,15.90
2017-07-30T03:21:52.167Z,15.80
2017-07-30T03:24:20.447Z,16.00
2017-07-30T03:26:48.931Z,16.00
2017-07-30T03:31:48.105Z,16.10
2017-07-30T03:34:16.999Z,16.20
2017-07-30T03:36:45.876Z,16.20
2017-07-30T03:39:14.737Z,16.10
2017-07-30T03:41:43.202Z,16.00
2017-07-30T03:44:11.914Z,15.90
2017-07-30T03:46:40.756Z,15.70
2017-07-30T03:49:09.216Z,15.70
2017-07-30T03:51:38.294Z,15.60
2017-07-30T03:54:07.170Z,15.60
2017-07-30T03:56:35.606Z,15.80
2017-07-30T03:59:04.104Z,15.90
2017-07-30T04:09:08.651Z,16.30
2017-07-30T04:11:37.092Z,16.30
2017-07-30T04:14:05.924Z,16.30
2017-07-30T04:16:36.008Z,16.30
2017-07-30T04:19:05.208Z,16.10
2017-07-30T04:21:35.666Z,16.40
2017-07-30T04:24:04.101Z,16.50
2017-07-30T04:26:32.526Z,16.50
2017-07-30T04:29:01.795Z,16.50
2017-07-30T04:31:30.990Z,16.50
2017-07-30T04:34:00.184Z,16.60
2017-07-30T04:36:29.426Z,16.70
2017-07-30T04:38:58.260Z,16.80
2017-07-30T04:41:26.739Z,17.00
2017-07-30T04:43:55.225Z,17.00
2017-07-30T04:46:24.421Z,17.00
2017-07-30T04:48:52.853Z,17.10
2017-07-30T04:51:21.719Z,17.10
2017-07-30T04:53:50.146Z,17.20
2017-07-30T04:56:18.613Z,17.40
2017-07-30T04:58:47.038Z,17.60
2017-07-30T05:01:15.541Z,17.90
2017-07-30T05:03:43.971Z,18.00
2017-07-30T05:06:12.403Z,18.20
2017-07-30T05:08:40.871Z,18.40
2017-07-30T05:11:09.301Z,18.80
2017-07-30T05:13:37.742Z,19.40
2017-07-30T05:16:06.258Z,20.00
2017-07-30T05:18:34.729Z,20.70
2017-07-30T05:21:03.164Z,21.40
2017-07-30T05:23:31.603Z,21.60
2017-07-30T05:26:00.321Z,21.40
2017-07-30T05:28:28.750Z,21.00
2017-07-30T05:30:57.621Z,20.90
2017-07-30T05:33:26.089Z,22.20
2017-07-30T05:35:54.509Z,23.00
2017-07-30T05:38:22.981Z,23.50
2017-07-30T05:40:51.460Z,24.20
2017-07-30T05:43:19.897Z,24.30
2017-07-30T05:45:48.822Z,24.00
2017-07-30T05:48:17.649Z,24.80
2017-07-30T05:50:46.081Z,25.80
2017-07-30T05:53:14.957Z,25.80
2017-07-30T05:55:43.402Z,25.70
2017-07-30T05:58:11.831Z,26.60
2017-07-30T06:00:41.495Z,28.00
2017-07-30T06:03:09.929Z,27.70
2017-07-30T06:05:38.391Z,28.40
2017-07-30T06:08:07.694Z,29.60
2017-07-30T06:10:36.131Z,30.10
2017-07-30T06:13:04.557Z,30.80
2017-07-30T06:15:33.033Z,31.10
2017-07-30T06:18:01.463Z,31.60
2017-07-30T06:20:29.893Z,30.20
2017-07-30T06:22:58.548Z,30.00
2017-07-30T06:25:26.975Z,30.40
2017-07-30T06:27:55.402Z,31.10
2017-07-30T06:30:23.886Z,31.60
2017-07-30T06:32:52.331Z,32.90
2017-07-30T06:35:20.760Z,33.40
2017-07-30T06:37:49.256Z,33.40
2017-07-30T06:40:17.699Z,33.10
2017-07-30T06:42:46.146Z,33.10
2017-07-30T06:45:14.609Z,34.40
2017-07-30T06:47:43.031Z,34.90
2017-07-30T06:50:12.223Z,35.20
2017-07-30T06:52:40.716Z,35.90
2017-07-30T06:55:09.151Z,35.20
2017-07-30T06:57:38.047Z,35.10
2017-07-30T07:00:06.492Z,34.90
2017-07-30T07:02:34.923Z,34.50
2017-07-30T07:05:03.411Z,34.60
2017-07-30T07:07:31.850Z,34.90
2017-07-30T07:10:00.282Z,36.00
2017-07-30T07:12:28.811Z,37.10
2017-07-30T07:14:57.244Z,37.40
2017-07-30T07:17:26.448Z,36.90
2017-07-30T07:19:54.920Z,36.40
2017-07-30T07:22:23.795Z,35.90
2017-07-30T07:24:52.229Z,35.30
2017-07-30T07:27:20.751Z,35.80
2017-07-30T07:29:49.197Z,36.70
2017-07-30T07:32:18.404Z,38.00
2017-07-30T07:34:47.694Z,38.30
2017-07-30T07:37:17.252Z,38.10
2017-07-30T07:39:45.698Z,39.00
2017-07-30T07:42:14.180Z,39.10
2017-07-30T07:44:42.656Z,38.90
2017-07-30T07:47:11.098Z,39.30
2017-07-30T07:49:39.523Z,38.10
2017-07-30T07:52:08.017Z,38.50
2017-07-30T07:54:36.869Z,38.30
2017-07-30T07:57:05.322Z,38.00
2017-07-30T07:59:34.452Z,37.40
2017-07-30T08:02:03.668Z,37.60
2017-07-30T08:04:32.102Z,37.20
2017-07-30T08:07:00.600Z,36.50
2017-07-30T08:09:29.043Z,35.90
2017-07-30T08:11:57.885Z,35.30
2017-07-30T08:14:26.045Z,35.50
2017-07-30T08:16:54.479Z,35.70
2017-07-30T08:19:23.694Z,35.80
2017-07-30T08:21:52.189Z,36.30
2017-07-30T08:24:21.182Z,36.20
2017-07-30T08:26:50.367Z,36.50
2017-07-30T08:29:19.983Z,36.20
2017-07-30T08:31:48.415Z,36.50
2017-07-30T08:34:18.414Z,36.70
2017-07-30T08:36:47.615Z,36.70
2017-07-30T08:39:16.121Z,37.50
2017-07-30T08:41:44.564Z,36.90
2017-07-30T08:44:13.783Z,37.50
2017-07-30T08:46:42.658Z,37.30
2017-07-30T08:49:12.041Z,37.60
2017-07-30T08:51:40.493Z,37.40
2017-07-30T08:54:09.355Z,37.00
2017-07-30T08:56:38.227Z,37.40
2017-07-30T08:59:07.049Z,37.80
2017-07-30T09:01:35.525Z,38.40
2017-07-30T09:04:03.998Z,37.70
2017-07-30T09:06:32.440Z,35.70
2017-07-30T09:09:00.924Z,35.60
2017-07-30T09:11:30.171Z,35.40
2017-07-30T09:13:59.424Z,35.20
2017-07-30T09:16:28.620Z,36.20
2017-07-30T09:18:57.103Z,37.10
2017-07-30T09:21:25.547Z,36.80
2017-07-30T09:23:54.374Z,35.70
2017-07-30T09:26:23.268Z,35.80
2017-07-30T09:28:51.694Z,36.40
2017-07-30T09:31:20.940Z,36.10
2017-07-30T09:33:50.200Z,35.90
2017-07-30T09:36:18.644Z,36.90
2017-07-30T09:38:47.486Z,38.00
2017-07-30T09:41:15.961Z,38.70
2017-07-30T09:43:44.784Z,39.50
2017-07-30T09:46:13.628Z,39.50
2017-07-30T09:48:43.325Z,38.90
2017-07-30T09:51:11.748Z,39.40
2017-07-30T09:53:41.248Z,39.50
2017-07-30T09:56:10.138Z,39.90
2017-07-30T09:58:39.009Z,39.20
2017-07-30T10:01:07.423Z,39.40
2017-07-30T10:03:35.932Z,38.40
2017-07-30T10:06:05.664Z,37.70
2017-07-30T10:08:34.113Z,38.40
2017-07-30T10:11:02.948Z,39.70
2017-07-30T10:13:31.773Z,40.50
2017-07-30T10:16:00.254Z,40.50
2017-07-30T10:18:29.826Z,40.00
2017-07-30T10:23:28.116Z,39.40
2017-07-30T10:25:57.367Z,39.40
2017-07-30T10:28:26.225Z,40.20
2017-07-30T10:30:55.428Z,40.80
2017-07-30T10:33:24.332Z,40.40
2017-07-30T10:35:53.183Z,41.40
2017-07-30T10:38:22.012Z,39.70
2017-07-30T10:40:51.272Z,39.00
2017-07-30T10:43:19.703Z,38.80
2017-07-30T10:45:48.930Z,38.20
2017-07-30T10:48:18.164Z,38.40
2017-07-30T10:50:46.996Z,38.30
2017-07-30T10:53:15.470Z,38.80
2017-07-30T10:55:44.349Z,41.00
2017-07-30T10:58:13.559Z,42.20
2017-07-30T11:00:42.389Z,39.70
2017-07-30T11:03:11.259Z,40.10
2017-07-30T11:05:39.779Z,40.60
2017-07-30T11:08:08.202Z,41.30
2017-07-30T11:10:36.663Z,42.50
2017-07-30T11:13:05.868Z,42.20
2017-07-30T11:15:34.795Z,40.50
2017-07-30T11:18:03.614Z,40.00
2017-07-30T11:23:01.871Z,39.20
2017-07-30T11:25:31.194Z,38.00
2017-07-30T11:28:00.031Z,35.70
2017-07-30T11:30:28.459Z,38.00
2017-07-30T11:32:56.910Z,39.80
2017-07-30T11:35:25.528Z,41.10
2017-07-30T11:37:54.351Z,42.40
2017-07-30T11:40:23.600Z,42.30
2017-07-30T11:42:52.439Z,42.40
2017-07-30T11:45:20.861Z,40.50
2017-07-30T11:47:49.440Z,40.80
2017-07-30T11:50:18.271Z,41.10
2017-07-30T11:52:46.694Z,42.00
2017-07-30T11:55:15.952Z,42.70
2017-07-30T11:57:44.417Z,42.60
2017-07-30T12:00:12.846Z,39.40
2017-07-30T12:02:41.308Z,41.20
2017-07-30T12:05:10.554Z,42.30
2017-07-30T12:07:38.994Z,42.20
2017-07-30T12:10:08.192Z,42.00
2017-07-30T12:12:36.696Z,41.50
2017-07-30T12:15:05.894Z,41.20
2017-07-30T12:17:34.317Z,41.60
2017-07-30T12:20:02.782Z,42.30
2017-07-30T12:22:31.084Z,43.30
2017-07-30T12:24:59.912Z,42.90
2017-07-30T12:27:28.356Z,42.90
2017-07-30T12:29:56.861Z,41.80
2017-07-30T12:32:25.905Z,39.40
2017-07-30T12:34:54.353Z,37.40
2017-07-30T12:37:23.618Z,39.00
2017-07-30T12:39:52.851Z,39.20
2017-07-30T12:42:21.688Z,36.70
2017-07-30T12:44:50.502Z,34.30
2017-07-30T12:47:18.966Z,33.40
2017-07-30T12:49:47.399Z,31.40
2017-07-30T12:52:16.265Z,30.30
2017-07-30T12:54:45.263Z,29.10
2017-07-30T12:57:14.130Z,27.50
2017-07-30T12:59:43.340Z,27.20
2017-07-30T13:02:12.177Z,29.30
2017-07-30T13:04:41.013Z,29.10
2017-07-30T13:07:09.907Z,28.50
2017-07-30T13:09:39.103Z,28.30
2017-07-30T13:12:07.944Z,28.60
2017-07-30T13:14:36.380Z,28.80
2017-07-30T13:17:05.621Z,29.10
2017-07-30T13:19:34.463Z,29.20
2017-07-30T13:22:03.668Z,29.00
2017-07-30T13:24:32.896Z,28.60
2017-07-30T13:27:01.726Z,28.20
2017-07-30T13:29:30.205Z,28.00
2017-07-30T13:31:58.461Z,27.90
2017-07-30T13:34:26.893Z,27.80
2017-07-30T13:36:55.769Z,27.40
2017-07-30T13:39:25.056Z,26.30
2017-07-30T13:41:53.492Z,25.80
2017-07-30T13:44:22.699Z,24.90
2017-07-30T13:46:51.179Z,25.00
2017-07-30T13:49:19.292Z,25.20
2017-07-30T13:51:47.816Z,25.50
2017-07-30T13:54:17.015Z,25.70
2017-07-30T13:56:46.611Z,27.90
2017-07-30T13:59:15.103Z,30.70
2017-07-30T14:01:44.295Z,32.80
2017-07-30T14:04:12.740Z,34.50
2017-07-30T14:06:41.224Z,35.40
2017-07-30T14:09:09.680Z,33.30
2017-07-30T14:14:08.041Z,28.00
2017-07-30T14:16:36.891Z,28.00
2017-07-30T14:19:05.779Z,27.30
2017-07-30T14:21:34.216Z,27.20
2017-07-30T14:24:02.640Z,27.20
2017-07-30T14:26:31.126Z,26.60
2017-07-30T14:28:59.610Z,26.90
2017-07-30T14:31:29.197Z,27.50
2017-07-30T14:33:57.692Z,27.10
2017-07-30T14:36:26.132Z,27.40
2017-07-30T14:38:54.389Z,27.30
2017-07-30T14:41:23.656Z,27.60
2017-07-30T14:43:52.118Z,27.90
2017-07-30T14:46:20.621Z,27.90
2017-07-30T14:48:49.483Z,28.10
2017-07-30T14:51:17.960Z,27.90
2017-07-30T14:53:46.455Z,27.80
2017-07-30T14:56:14.876Z,27.90
2017-07-30T14:58:43.700Z,28.40
2017-07-30T15:01:12.173Z,29.00
2017-07-30T15:03:40.634Z,29.50
2017-07-30T15:06:09.076Z,29.70
2017-07-30T15:08:37.565Z,30.40
2017-07-30T15:11:06.009Z,30.70
2017-07-30T15:13:34.869Z,30.20
2017-07-30T15:16:04.065Z,30.70
2017-07-30T15:18:32.542Z,30.10
2017-07-30T15:21:01.813Z,28.90
2017-07-30T15:23:30.260Z,29.00
2017-07-30T15:25:58.707Z,29.10
2017-07-30T15:28:27.027Z,29.60
2017-07-30T15:30:55.712Z,30.10
2017-07-30T15:33:24.166Z,31.30
2017-07-30T15:35:52.655Z,31.50
2017-07-30T15:38:20.923Z,31.90
2017-07-30T15:40:49.357Z,31.90
2017-07-30T15:43:17.826Z,31.60
2017-07-30T15:45:46.264Z,31.30
2017-07-30T15:48:14.718Z,31.00
2017-07-30T15:50:43.192Z,30.80
2017-07-30T15:53:11.637Z,30.80
2017-07-30T15:55:40.088Z,30.90
2017-07-30T15:58:08.556Z,30.90
2017-07-30T16:00:36.996Z,30.60
2017-07-30T16:03:05.919Z,30.00
2017-07-30T16:05:35.128Z,29.60
2017-07-30T16:08:03.565Z,29.40
2017-07-30T16:10:32.056Z,30.70
2017-07-30T16:13:00.477Z,31.50
2017-07-30T16:15:28.940Z,31.90
2017-07-30T16:17:58.201Z,32.40
2017-07-30T16:20:26.700Z,32.70
2017-07-30T16:22:55.156Z,31.60
2017-07-30T16:25:23.606Z,31.20
2017-07-30T16:27:52.112Z,30.90
2017-07-30T16:30:20.542Z,30.40
2017-07-30T16:32:48.984Z,30.70
2017-07-30T16:35:17.497Z,30.70
2017-07-30T16:37:46.703Z,30.10
2017-07-30T16:40:15.557Z,30.20
2017-07-30T16:42:44.395Z,30.40
2017-07-30T16:45:13.595Z,30.00
2017-07-30T16:47:42.044Z,29.40
2017-07-30T16:50:11.296Z,29.00
2017-07-30T16:52:39.779Z,28.60
2017-07-30T16:55:08.620Z,28.20
2017-07-30T16:57:37.148Z,28.20
2017-07-30T17:00:06.053Z,28.50
2017-07-30T17:02:34.490Z,29.00
2017-07-30T17:05:03.678Z,29.20
2017-07-30T17:07:32.530Z,29.50
2017-07-30T17:10:00.985Z,29.90
2017-07-30T17:12:29.408Z,30.70
2017-07-30T17:14:57.895Z,30.80
2017-07-30T17:17:26.340Z,30.00
2017-07-30T17:19:54.799Z,29.40
2017-07-30T17:22:24.721Z,29.10
2017-07-30T17:24:53.919Z,29.30
2017-07-30T17:27:22.350Z,29.60
2017-07-30T17:29:50.844Z,29.30
2017-07-30T17:32:19.290Z,28.90
2017-07-30T17:34:47.716Z,28.90
2017-07-30T17:37:17.776Z,28.70
2017-07-30T17:39:46.227Z,28.60
2017-07-30T17:42:14.665Z,28.30
2017-07-30T17:44:43.147Z,27.90
2017-07-30T17:47:11.975Z,27.50
2017-07-30T17:49:41.180Z,27.50
2017-07-30T17:52:09.603Z,27.10
2017-07-30T17:54:38.082Z,26.50
2017-07-30T17:57:06.510Z,26.20
2017-07-30T17:59:34.934Z,25.80
2017-07-30T18:02:03.414Z,25.50
2017-07-30T18:04:31.949Z,25.20
2017-07-30T18:07:01.146Z,25.00
2017-07-30T18:09:30.386Z,24.80
2017-07-30T18:11:58.867Z,24.60
2017-07-30T18:14:27.340Z,24.40
2017-07-30T18:16:55.609Z,24.20
2017-07-30T18:19:24.123Z,24.10
2017-07-30T18:21:53.388Z,23.90
2017-07-30T18:24:22.212Z,23.80
2017-07-30T18:26:50.653Z,23.80
2017-07-30T18:29:19.135Z,23.90
2017-07-30T18:31:48.011Z,23.90
2017-07-30T18:34:16.448Z,23.80
2017-07-30T18:36:44.918Z,23.60
2017-07-30T18:39:13.429Z,23.10
2017-07-30T18:41:42.247Z,22.80
2017-07-30T18:44:10.677Z,22.50
2017-07-30T18:46:39.545Z,22.30
2017-07-30T18:49:07.977Z,22.20
2017-07-30T18:51:36.827Z,21.90
2017-07-30T18:54:05.294Z,21.90
2017-07-30T18:56:34.186Z,21.80
2017-07-30T18:59:02.670Z,21.70
2017-07-30T19:01:31.512Z,21.50
2017-07-30T19:04:00.360Z,21.50
2017-07-30T19:06:28.829Z,21.60
2017-07-30T19:08:57.313Z,21.50
2017-07-30T19:11:26.888Z,21.20
2017-07-30T19:13:55.326Z,21.10
2017-07-30T19:16:24.521Z,20.90
2017-07-30T19:18:53.040Z,20.80
2017-07-30T19:21:21.868Z,20.60
2017-07-30T19:23:50.703Z,20.50
2017-07-30T19:26:19.163Z,20.30
2017-07-30T19:28:47.471Z,20.30
2017-07-30T19:31:16.571Z,20.10
2017-07-30T19:33:45.783Z,20.00
2017-07-30T19:36:14.283Z,19.90
2017-07-30T19:38:43.133Z,19.80
2017-07-30T19:41:11.575Z,19.70
2017-07-30T19:43:40.865Z,19.60
2017-07-30T19:46:09.342Z,19.70
2017-07-30T19:48:38.147Z,19.60
2017-07-30T19:51:06.984Z,19.60
2017-07-30T19:53:35.428Z,19.60
2017-07-30T19:56:03.920Z,19.60
2017-07-30T19:58:33.128Z,19.60
2017-07-30T20:01:02.008Z,19.60
2017-07-30T20:03:30.839Z,19.50
2017-07-30T20:05:59.268Z,19.50
2017-07-30T20:08:27.738Z,19.40
2017-07-30T20:10:56.556Z,19.30
2017-07-30T20:13:25.398Z,19.30
2017-07-30T20:15:54.148Z,19.40
2017-07-30T20:18:22.579Z,19.40
2017-07-30T20:20:51.018Z,19.40
2017-07-30T20:23:20.278Z,19.40
2017-07-30T20:25:48.899Z,19.40
2017-07-30T20:28:17.780Z,19.30
2017-07-30T20:30:46.223Z,19.40
2017-07-30T20:33:14.656Z,19.40
2017-07-30T20:35:43.166Z,19.40
2017-07-30T20:38:11.631Z,19.40
2017-07-30T20:40:40.475Z,19.30
2017-07-30T20:43:08.940Z,19.30
2017-07-30T20:45:37.378Z,19.40
2017-07-30T20:48:05.874Z,19.40
2017-07-30T20:50:35.091Z,19.40
2017-07-30T20:53:03.527Z,19.30
2017-07-30T20:55:32.406Z,19.40
2017-07-30T20:58:01.300Z,19.30
2017-07-30T21:00:31.230Z,19.20
2017-07-30T21:02:59.679Z,19.20
2017-07-30T21:05:28.169Z,19.10
2017-07-30T21:07:56.999Z,19.10
2017-07-30T21:10:25.435Z,19.10
2017-07-30T21:12:53.914Z,19.20
2017-07-30T21:15:22.755Z,19.30
2017-07-30T21:17:51.191Z,19.20
2017-07-30T21:20:19.827Z,19.20
2017-07-30T21:22:48.536Z,19.20
2017-07-30T21:25:16.984Z,19.20
2017-07-30T21:27:45.415Z,19.20
2017-07-30T21:30:13.902Z,19.30
2017-07-30T21:32:42.732Z,19.30
2017-07-30T21:35:12.022Z,19.20
2017-07-30T21:37:40.472Z,19.20
2017-07-30T21:40:08.943Z,19.20
2017-07-30T21:42:38.147Z,19.20
2017-07-30T21:45:06.587Z,19.20
2017-07-30T21:47:35.462Z,19.20
2017-07-30T21:50:04.288Z,19.20
2017-07-30T21:52:33.142Z,19.20
2017-07-30T21:55:01.623Z,19.10
2017-07-30T21:57:30.448Z,19.10
2017-07-30T21:59:58.885Z,19.00
2017-07-30T22:02:27.636Z,19.00
2017-07-30T22:04:57.222Z,19.00
2017-07-30T22:07:26.451Z,19.00
2017-07-30T22:09:58.530Z,19.00
2017-07-30T22:12:27.436Z,19.00
2017-07-30T22:14:57.440Z,18.90
2017-07-30T22:17:27.438Z,18.90
2017-07-30T22:19:55.904Z,18.90
2017-07-30T22:22:25.501Z,18.90
2017-07-30T22:24:54.722Z,18.90
2017-07-30T22:29:53.064Z,18.90
2017-07-30T22:32:22.275Z,19.00
2017-07-30T22:34:51.520Z,19.10
2017-07-30T22:39:49.903Z,19.20
2017-07-30T22:42:18.749Z,19.10
2017-07-30T22:44:47.229Z,19.00
2017-07-30T22:47:16.305Z,19.00
2017-07-30T22:49:45.160Z,18.90
2017-07-30T22:54:43.532Z,18.80
2017-07-30T22:57:12.786Z,18.70
2017-07-30T22:59:45.166Z,18.60
2017-07-30T23:02:13.609Z,18.50
2017-07-30T23:04:42.841Z,18.50
2017-07-30T23:07:12.537Z,18.70
2017-07-30T23:09:42.513Z,18.60
2017-07-30T23:14:41.565Z,18.50
2017-07-30T23:17:10.394Z,18.40
2017-07-30T23:19:39.245Z,18.30
2017-07-30T23:22:08.491Z,18.20
2017-07-30T23:24:38.430Z,18.20
2017-07-30T23:27:08.058Z,18.20
2017-07-30T23:29:37.037Z,18.20
2017-07-30T23:32:05.606Z,18.10
2017-07-30T23:39:33.773Z,18.00
2017-07-30T23:42:02.637Z,18.00
2017-07-30T23:44:31.092Z,17.90
2017-07-30T23:47:00.376Z,17.90
2017-07-30T23:51:59.800Z,17.90
2017-07-30T23:54:29.423Z,18.00
2017-07-30T23:56:58.638Z,18.10
2017-07-30T23:59:27.867Z,18.00
